sensor_id;sensor_type;location;lat;lon;timestamp;P1;durP1;ratioP1;P2;durP2;ratioP2
56242;SDS011;42155;53.096;23.226;2022-11-22T00:01:54;26.75;;;11.25;;
56242;SDS011;42155;53.096;23.226;2022-11-22T00:03:54;32.20;;;12.02;;
56242;SDS011;42155;53.096;23.226;2022-11-22T00:05:55;25.30;;;12.07;;
56242;SDS011;42155;53.096;23.226;2022-11-22T00:07:55;28.17;;;12.10;;
56242;SDS011;42155;53.096;23.226;2022-11-22T00:09:55;29.00;;;12.82;;
56242;SDS011;42155;53.096;23.226;2022-11-22T00:11:56;24.42;;;12.00;;
56242;SDS011;42155;53.096;23.226;2022-11-22T00:13:56;29.13;;;12.43;;
56242;SDS011;42155;53.096;23.226;2022-11-22T00:16:00;30.85;;;11.65;;
56242;SDS011;42155;53.096;23.226;2022-11-22T00:18:02;32.03;;;13.45;;
56242;SDS011;42155;53.096;23.226;2022-11-22T00:20:03;28.20;;;12.15;;
56242;SDS011;42155;53.096;23.226;2022-11-22T00:22:05;28.23;;;11.68;;
56242;SDS011;42155;53.096;23.226;2022-11-22T00:24:05;26.88;;;12.13;;
56242;SDS011;42155;53.096;23.226;2022-11-22T00:26:06;28.52;;;12.13;;
56242;SDS011;42155;53.096;23.226;2022-11-22T00:28:06;26.00;;;12.65;;
56242;SDS011;42155;53.096;23.226;2022-11-22T00:30:07;30.08;;;12.27;;
56242;SDS011;42155;53.096;23.226;2022-11-22T00:32:08;27.83;;;12.05;;
56242;SDS011;42155;53.096;23.226;2022-11-22T00:34:08;28.23;;;11.23;;
56242;SDS011;42155;53.096;23.226;2022-11-22T00:36:09;29.13;;;12.25;;
56242;SDS011;42155;53.096;23.226;2022-11-22T00:38:09;25.45;;;11.80;;
56242;SDS011;42155;53.096;23.226;2022-11-22T00:40:09;27.15;;;11.63;;
56242;SDS011;42155;53.096;23.226;2022-11-22T00:42:10;23.33;;;10.18;;
56242;SDS011;42155;53.096;23.226;2022-11-22T00:44:10;27.67;;;11.48;;
56242;SDS011;42155;53.096;23.226;2022-11-22T00:46:10;27.83;;;12.25;;
56242;SDS011;42155;53.096;23.226;2022-11-22T00:48:11;25.80;;;11.93;;
56242;SDS011;42155;53.096;23.226;2022-11-22T00:50:11;24.35;;;11.52;;
56242;SDS011;42155;53.096;23.226;2022-11-22T00:52:12;26.17;;;11.10;;
56242;SDS011;42155;53.096;23.226;2022-11-22T00:54:12;29.05;;;12.43;;
56242;SDS011;42155;53.096;23.226;2022-11-22T00:56:12;28.08;;;12.07;;
56242;SDS011;42155;53.096;23.226;2022-11-22T00:58:13;25.75;;;11.73;;
56242;SDS011;42155;53.096;23.226;2022-11-22T01:00:13;25.58;;;11.68;;
56242;SDS011;42155;53.096;23.226;2022-11-22T01:02:14;23.23;;;10.70;;
56242;SDS011;42155;53.096;23.226;2022-11-22T01:04:14;28.13;;;11.50;;
56242;SDS011;42155;53.096;23.226;2022-11-22T01:06:15;25.75;;;10.75;;
56242;SDS011;42155;53.096;23.226;2022-11-22T01:08:15;28.75;;;12.85;;
56242;SDS011;42155;53.096;23.226;2022-11-22T01:10:15;25.92;;;11.25;;
56242;SDS011;42155;53.096;23.226;2022-11-22T01:12:16;23.58;;;10.70;;
56242;SDS011;42155;53.096;23.226;2022-11-22T01:14:16;27.67;;;11.73;;
56242;SDS011;42155;53.096;23.226;2022-11-22T01:16:17;24.90;;;11.07;;
56242;SDS011;42155;53.096;23.226;2022-11-22T01:18:17;28.83;;;11.90;;
56242;SDS011;42155;53.096;23.226;2022-11-22T01:20:18;25.15;;;11.30;;
56242;SDS011;42155;53.096;23.226;2022-11-22T01:22:18;26.80;;;12.70;;
56242;SDS011;42155;53.096;23.226;2022-11-22T01:24:18;27.30;;;12.35;;
56242;SDS011;42155;53.096;23.226;2022-11-22T01:26:19;28.77;;;11.45;;
56242;SDS011;42155;53.096;23.226;2022-11-22T01:28:19;31.98;;;13.82;;
56242;SDS011;42155;53.096;23.226;2022-11-22T01:30:19;28.83;;;12.73;;
56242;SDS011;42155;53.096;23.226;2022-11-22T01:32:20;30.10;;;13.73;;
56242;SDS011;42155;53.096;23.226;2022-11-22T01:34:20;37.17;;;13.70;;
56242;SDS011;42155;53.096;23.226;2022-11-22T01:36:20;37.10;;;14.40;;
56242;SDS011;42155;53.096;23.226;2022-11-22T01:38:21;30.65;;;13.60;;
56242;SDS011;42155;53.096;23.226;2022-11-22T01:40:21;33.25;;;14.02;;
56242;SDS011;42155;53.096;23.226;2022-11-22T01:42:22;27.23;;;12.05;;
56242;SDS011;42155;53.096;23.226;2022-11-22T01:44:29;32.65;;;12.65;;
56242;SDS011;42155;53.096;23.226;2022-11-22T01:46:31;28.80;;;12.43;;
56242;SDS011;42155;53.096;23.226;2022-11-22T01:51:16;30.05;;;12.55;;
56242;SDS011;42155;53.096;23.226;2022-11-22T01:53:24;30.23;;;13.18;;
56242;SDS011;42155;53.096;23.226;2022-11-22T01:55:32;26.70;;;12.27;;
56242;SDS011;42155;53.096;23.226;2022-11-22T01:57:35;25.48;;;12.50;;
56242;SDS011;42155;53.096;23.226;2022-11-22T01:59:38;28.58;;;12.48;;
56242;SDS011;42155;53.096;23.226;2022-11-22T02:01:42;24.60;;;11.45;;
56242;SDS011;42155;53.096;23.226;2022-11-22T02:03:43;30.67;;;12.73;;
56242;SDS011;42155;53.096;23.226;2022-11-22T02:05:48;28.45;;;12.50;;
56242;SDS011;42155;53.096;23.226;2022-11-22T02:10:06;28.20;;;12.52;;
56242;SDS011;42155;53.096;23.226;2022-11-22T02:12:07;26.08;;;11.20;;
56242;SDS011;42155;53.096;23.226;2022-11-22T02:14:10;26.35;;;12.18;;
56242;SDS011;42155;53.096;23.226;2022-11-22T02:16:11;29.55;;;13.35;;
56242;SDS011;42155;53.096;23.226;2022-11-22T02:18:11;31.17;;;12.70;;
56242;SDS011;42155;53.096;23.226;2022-11-22T02:20:12;26.98;;;12.32;;
56242;SDS011;42155;53.096;23.226;2022-11-22T02:27:12;27.13;;;12.00;;
56242;SDS011;42155;53.096;23.226;2022-11-22T02:29:12;31.50;;;12.77;;
56242;SDS011;42155;53.096;23.226;2022-11-22T02:31:32;24.05;;;11.15;;
56242;SDS011;42155;53.096;23.226;2022-11-22T02:33:33;26.13;;;11.75;;
56242;SDS011;42155;53.096;23.226;2022-11-22T02:35:34;25.95;;;12.15;;
56242;SDS011;42155;53.096;23.226;2022-11-22T02:37:34;30.15;;;13.30;;
56242;SDS011;42155;53.096;23.226;2022-11-22T02:39:34;29.10;;;12.30;;
56242;SDS011;42155;53.096;23.226;2022-11-22T02:41:35;27.88;;;11.95;;
56242;SDS011;42155;53.096;23.226;2022-11-22T02:43:37;29.40;;;13.38;;
56242;SDS011;42155;53.096;23.226;2022-11-22T02:45:41;25.60;;;11.65;;
56242;SDS011;42155;53.096;23.226;2022-11-22T02:47:41;27.60;;;11.38;;
56242;SDS011;42155;53.096;23.226;2022-11-22T02:49:41;29.05;;;12.70;;
56242;SDS011;42155;53.096;23.226;2022-11-22T02:51:42;28.98;;;12.35;;
56242;SDS011;42155;53.096;23.226;2022-11-22T02:53:42;31.15;;;13.27;;
56242;SDS011;42155;53.096;23.226;2022-11-22T02:55:43;28.33;;;12.55;;
56242;SDS011;42155;53.096;23.226;2022-11-22T02:57:43;22.45;;;11.05;;
56242;SDS011;42155;53.096;23.226;2022-11-22T02:59:44;25.98;;;12.20;;
56242;SDS011;42155;53.096;23.226;2022-11-22T03:01:44;23.92;;;10.70;;
56242;SDS011;42155;53.096;23.226;2022-11-22T03:03:45;26.05;;;11.65;;
56242;SDS011;42155;53.096;23.226;2022-11-22T03:05:46;26.65;;;11.88;;
56242;SDS011;42155;53.096;23.226;2022-11-22T03:07:46;28.85;;;12.43;;
56242;SDS011;42155;53.096;23.226;2022-11-22T03:09:46;25.52;;;11.77;;
56242;SDS011;42155;53.096;23.226;2022-11-22T03:11:47;25.30;;;10.90;;
56242;SDS011;42155;53.096;23.226;2022-11-22T03:13:47;22.52;;;10.82;;
56242;SDS011;42155;53.096;23.226;2022-11-22T03:15:47;25.38;;;10.70;;
56242;SDS011;42155;53.096;23.226;2022-11-22T03:17:48;21.95;;;10.60;;
56242;SDS011;42155;53.096;23.226;2022-11-22T03:19:48;23.77;;;11.23;;
56242;SDS011;42155;53.096;23.226;2022-11-22T03:21:48;25.48;;;10.75;;
56242;SDS011;42155;53.096;23.226;2022-11-22T03:23:49;30.08;;;12.90;;
56242;SDS011;42155;53.096;23.226;2022-11-22T03:25:49;24.63;;;11.27;;
56242;SDS011;42155;53.096;23.226;2022-11-22T03:27:49;27.58;;;10.77;;
56242;SDS011;42155;53.096;23.226;2022-11-22T03:29:50;24.45;;;10.68;;
56242;SDS011;42155;53.096;23.226;2022-11-22T03:31:50;24.35;;;11.10;;
56242;SDS011;42155;53.096;23.226;2022-11-22T03:33:50;23.77;;;10.32;;
56242;SDS011;42155;53.096;23.226;2022-11-22T03:35:55;25.17;;;10.98;;
56242;SDS011;42155;53.096;23.226;2022-11-22T03:37:56;26.10;;;10.77;;
56242;SDS011;42155;53.096;23.226;2022-11-22T03:39:56;26.08;;;10.98;;
56242;SDS011;42155;53.096;23.226;2022-11-22T03:41:57;24.50;;;10.60;;
56242;SDS011;42155;53.096;23.226;2022-11-22T03:43:57;30.88;;;12.25;;
56242;SDS011;42155;53.096;23.226;2022-11-22T03:45:57;32.00;;;12.43;;
56242;SDS011;42155;53.096;23.226;2022-11-22T03:47:58;45.03;;;13.80;;
56242;SDS011;42155;53.096;23.226;2022-11-22T03:49:58;52.60;;;17.40;;
56242;SDS011;42155;53.096;23.226;2022-11-22T03:51:58;63.05;;;19.67;;
56242;SDS011;42155;53.096;23.226;2022-11-22T03:53:59;59.55;;;18.10;;
56242;SDS011;42155;53.096;23.226;2022-11-22T03:55:59;63.63;;;19.13;;
56242;SDS011;42155;53.096;23.226;2022-11-22T03:58:00;59.58;;;18.92;;
56242;SDS011;42155;53.096;23.226;2022-11-22T04:00:00;60.05;;;18.13;;
56242;SDS011;42155;53.096;23.226;2022-11-22T04:02:01;52.90;;;16.23;;
56242;SDS011;42155;53.096;23.226;2022-11-22T04:04:01;47.25;;;16.30;;
56242;SDS011;42155;53.096;23.226;2022-11-22T04:06:01;48.60;;;16.35;;
56242;SDS011;42155;53.096;23.226;2022-11-22T04:08:02;43.60;;;15.13;;
56242;SDS011;42155;53.096;23.226;2022-11-22T04:10:03;37.33;;;14.98;;
56242;SDS011;42155;53.096;23.226;2022-11-22T04:12:04;35.10;;;13.77;;
56242;SDS011;42155;53.096;23.226;2022-11-22T04:14:04;36.75;;;14.05;;
56242;SDS011;42155;53.096;23.226;2022-11-22T04:16:05;41.78;;;15.32;;
56242;SDS011;42155;53.096;23.226;2022-11-22T04:18:07;42.17;;;16.45;;
56242;SDS011;42155;53.096;23.226;2022-11-22T04:20:18;47.90;;;19.05;;
56242;SDS011;42155;53.096;23.226;2022-11-22T04:22:20;46.88;;;19.70;;
56242;SDS011;42155;53.096;23.226;2022-11-22T04:24:21;40.95;;;17.60;;
56242;SDS011;42155;53.096;23.226;2022-11-22T04:26:21;50.88;;;19.13;;
56242;SDS011;42155;53.096;23.226;2022-11-22T04:28:23;47.30;;;18.35;;
56242;SDS011;42155;53.096;23.226;2022-11-22T04:30:24;44.20;;;18.05;;
56242;SDS011;42155;53.096;23.226;2022-11-22T04:32:25;41.70;;;17.27;;
56242;SDS011;42155;53.096;23.226;2022-11-22T04:34:26;38.35;;;16.77;;
56242;SDS011;42155;53.096;23.226;2022-11-22T04:36:26;41.70;;;16.05;;
56242;SDS011;42155;53.096;23.226;2022-11-22T04:38:26;42.00;;;16.13;;
56242;SDS011;42155;53.096;23.226;2022-11-22T04:40:27;40.70;;;17.05;;
56242;SDS011;42155;53.096;23.226;2022-11-22T04:42:27;43.95;;;18.05;;
56242;SDS011;42155;53.096;23.226;2022-11-22T04:44:28;40.75;;;17.55;;
56242;SDS011;42155;53.096;23.226;2022-11-22T04:46:28;41.67;;;16.60;;
56242;SDS011;42155;53.096;23.226;2022-11-22T04:48:28;38.33;;;15.00;;
56242;SDS011;42155;53.096;23.226;2022-11-22T04:50:29;36.63;;;15.48;;
56242;SDS011;42155;53.096;23.226;2022-11-22T04:52:31;40.50;;;16.65;;
56242;SDS011;42155;53.096;23.226;2022-11-22T04:54:31;36.40;;;15.55;;
56242;SDS011;42155;53.096;23.226;2022-11-22T04:56:31;37.85;;;15.20;;
56242;SDS011;42155;53.096;23.226;2022-11-22T04:58:32;39.45;;;15.68;;
56242;SDS011;42155;53.096;23.226;2022-11-22T05:00:32;33.42;;;15.23;;
56242;SDS011;42155;53.096;23.226;2022-11-22T05:02:32;32.40;;;14.18;;
56242;SDS011;42155;53.096;23.226;2022-11-22T05:04:33;34.40;;;14.73;;
56242;SDS011;42155;53.096;23.226;2022-11-22T05:06:33;31.23;;;13.30;;
56242;SDS011;42155;53.096;23.226;2022-11-22T05:08:33;31.95;;;12.80;;
56242;SDS011;42155;53.096;23.226;2022-11-22T05:10:34;36.25;;;14.63;;
56242;SDS011;42155;53.096;23.226;2022-11-22T05:12:35;35.95;;;14.98;;
56242;SDS011;42155;53.096;23.226;2022-11-22T05:14:36;36.75;;;13.98;;
56242;SDS011;42155;53.096;23.226;2022-11-22T05:16:36;38.88;;;15.70;;
56242;SDS011;42155;53.096;23.226;2022-11-22T05:18:36;31.75;;;14.52;;
56242;SDS011;42155;53.096;23.226;2022-11-22T05:20:37;35.40;;;13.05;;
56242;SDS011;42155;53.096;23.226;2022-11-22T05:22:38;35.33;;;14.40;;
56242;SDS011;42155;53.096;23.226;2022-11-22T05:24:38;33.15;;;13.88;;
56242;SDS011;42155;53.096;23.226;2022-11-22T05:26:38;32.42;;;13.25;;
56242;SDS011;42155;53.096;23.226;2022-11-22T05:28:39;32.67;;;13.07;;
56242;SDS011;42155;53.096;23.226;2022-11-22T05:30:39;30.45;;;13.35;;
56242;SDS011;42155;53.096;23.226;2022-11-22T05:32:40;29.80;;;13.32;;
56242;SDS011;42155;53.096;23.226;2022-11-22T05:34:40;33.50;;;13.75;;
56242;SDS011;42155;53.096;23.226;2022-11-22T05:36:41;33.92;;;14.18;;
56242;SDS011;42155;53.096;23.226;2022-11-22T05:38:41;38.15;;;15.50;;
56242;SDS011;42155;53.096;23.226;2022-11-22T05:40:41;34.70;;;14.68;;
56242;SDS011;42155;53.096;23.226;2022-11-22T05:42:42;35.08;;;14.77;;
56242;SDS011;42155;53.096;23.226;2022-11-22T05:44:42;31.58;;;13.57;;
56242;SDS011;42155;53.096;23.226;2022-11-22T05:46:42;32.45;;;14.23;;
56242;SDS011;42155;53.096;23.226;2022-11-22T05:48:43;34.72;;;15.10;;
56242;SDS011;42155;53.096;23.226;2022-11-22T05:50:45;41.22;;;16.27;;
56242;SDS011;42155;53.096;23.226;2022-11-22T05:52:45;36.63;;;15.18;;
56242;SDS011;42155;53.096;23.226;2022-11-22T05:54:45;33.72;;;14.45;;
56242;SDS011;42155;53.096;23.226;2022-11-22T05:56:46;32.60;;;14.52;;
56242;SDS011;42155;53.096;23.226;2022-11-22T05:58:46;32.60;;;14.77;;
56242;SDS011;42155;53.096;23.226;2022-11-22T06:00:47;42.45;;;16.85;;
56242;SDS011;42155;53.096;23.226;2022-11-22T06:02:47;40.88;;;17.58;;
56242;SDS011;42155;53.096;23.226;2022-11-22T06:04:47;41.97;;;17.27;;
56242;SDS011;42155;53.096;23.226;2022-11-22T06:06:47;43.03;;;18.67;;
56242;SDS011;42155;53.096;23.226;2022-11-22T06:08:48;52.15;;;21.20;;
56242;SDS011;42155;53.096;23.226;2022-11-22T06:10:48;51.65;;;21.92;;
56242;SDS011;42155;53.096;23.226;2022-11-22T06:12:48;60.95;;;24.40;;
56242;SDS011;42155;53.096;23.226;2022-11-22T06:14:49;60.42;;;24.98;;
56242;SDS011;42155;53.096;23.226;2022-11-22T06:16:49;57.60;;;24.95;;
56242;SDS011;42155;53.096;23.226;2022-11-22T06:18:50;61.10;;;25.02;;
56242;SDS011;42155;53.096;23.226;2022-11-22T06:20:55;59.78;;;24.08;;
56242;SDS011;42155;53.096;23.226;2022-11-22T06:22:59;55.13;;;22.85;;
56242;SDS011;42155;53.096;23.226;2022-11-22T06:24:59;59.78;;;24.45;;
56242;SDS011;42155;53.096;23.226;2022-11-22T06:26:59;66.72;;;23.85;;
56242;SDS011;42155;53.096;23.226;2022-11-22T06:29:00;62.58;;;25.15;;
56242;SDS011;42155;53.096;23.226;2022-11-22T06:31:01;94.75;;;30.52;;
56242;SDS011;42155;53.096;23.226;2022-11-22T06:33:01;108.65;;;34.13;;
56242;SDS011;42155;53.096;23.226;2022-11-22T06:35:02;130.70;;;41.72;;
56242;SDS011;42155;53.096;23.226;2022-11-22T06:37:02;126.53;;;41.42;;
56242;SDS011;42155;53.096;23.226;2022-11-22T06:39:03;138.50;;;44.97;;
56242;SDS011;42155;53.096;23.226;2022-11-22T06:41:05;152.38;;;45.78;;
56242;SDS011;42155;53.096;23.226;2022-11-22T06:43:07;146.20;;;47.10;;
56242;SDS011;42155;53.096;23.226;2022-11-22T06:45:07;142.68;;;44.92;;
56242;SDS011;42155;53.096;23.226;2022-11-22T06:47:08;151.10;;;47.47;;
56242;SDS011;42155;53.096;23.226;2022-11-22T06:49:08;143.13;;;45.17;;
56242;SDS011;42155;53.096;23.226;2022-11-22T06:51:10;136.32;;;44.35;;
56242;SDS011;42155;53.096;23.226;2022-11-22T06:53:12;125.88;;;41.58;;
56242;SDS011;42155;53.096;23.226;2022-11-22T06:55:12;117.25;;;38.10;;
56242;SDS011;42155;53.096;23.226;2022-11-22T06:57:13;124.85;;;39.72;;
56242;SDS011;42155;53.096;23.226;2022-11-22T06:59:13;106.90;;;37.35;;
56242;SDS011;42155;53.096;23.226;2022-11-22T07:01:15;138.32;;;39.35;;
56242;SDS011;42155;53.096;23.226;2022-11-22T07:03:17;122.82;;;38.53;;
56242;SDS011;42155;53.096;23.226;2022-11-22T07:05:17;100.90;;;32.78;;
56242;SDS011;42155;53.096;23.226;2022-11-22T07:07:17;97.13;;;36.20;;
56242;SDS011;42155;53.096;23.226;2022-11-22T07:09:18;91.78;;;34.38;;
56242;SDS011;42155;53.096;23.226;2022-11-22T07:11:19;100.72;;;39.50;;
56242;SDS011;42155;53.096;23.226;2022-11-22T07:13:21;130.35;;;52.17;;
56242;SDS011;42155;53.096;23.226;2022-11-22T07:15:21;116.43;;;47.58;;
56242;SDS011;42155;53.096;23.226;2022-11-22T07:17:22;121.68;;;47.88;;
56242;SDS011;42155;53.096;23.226;2022-11-22T07:19:22;131.65;;;54.50;;
56242;SDS011;42155;53.096;23.226;2022-11-22T07:21:23;174.32;;;67.65;;
56242;SDS011;42155;53.096;23.226;2022-11-22T07:23:23;146.18;;;55.35;;
56242;SDS011;42155;53.096;23.226;2022-11-22T07:25:23;121.85;;;48.03;;
56242;SDS011;42155;53.096;23.226;2022-11-22T07:27:24;106.78;;;41.03;;
56242;SDS011;42155;53.096;23.226;2022-11-22T07:29:24;101.60;;;42.38;;
56242;SDS011;42155;53.096;23.226;2022-11-22T07:31:24;100.93;;;39.17;;
56242;SDS011;42155;53.096;23.226;2022-11-22T07:33:25;87.93;;;37.00;;
56242;SDS011;42155;53.096;23.226;2022-11-22T07:35:25;78.82;;;32.88;;
56242;SDS011;42155;53.096;23.226;2022-11-22T07:37:26;70.47;;;29.73;;
56242;SDS011;42155;53.096;23.226;2022-11-22T07:39:26;63.50;;;28.23;;
56242;SDS011;42155;53.096;23.226;2022-11-22T07:41:26;68.88;;;29.08;;
56242;SDS011;42155;53.096;23.226;2022-11-22T07:43:27;64.88;;;27.15;;
56242;SDS011;42155;53.096;23.226;2022-11-22T07:45:28;61.88;;;25.85;;
56242;SDS011;42155;53.096;23.226;2022-11-22T07:47:28;56.92;;;22.73;;
56242;SDS011;42155;53.096;23.226;2022-11-22T07:49:28;48.33;;;20.35;;
56242;SDS011;42155;53.096;23.226;2022-11-22T07:51:29;50.53;;;20.67;;
56242;SDS011;42155;53.096;23.226;2022-11-22T07:53:29;46.80;;;18.75;;
56242;SDS011;42155;53.096;23.226;2022-11-22T07:55:29;45.20;;;17.98;;
56242;SDS011;42155;53.096;23.226;2022-11-22T07:57:30;37.97;;;16.23;;
56242;SDS011;42155;53.096;23.226;2022-11-22T07:59:30;38.17;;;16.35;;
56242;SDS011;42155;53.096;23.226;2022-11-22T08:01:31;45.95;;;17.67;;
56242;SDS011;42155;53.096;23.226;2022-11-22T08:03:31;36.20;;;15.00;;
56242;SDS011;42155;53.096;23.226;2022-11-22T08:05:31;37.83;;;16.30;;
56242;SDS011;42155;53.096;23.226;2022-11-22T08:07:32;38.50;;;15.32;;
56242;SDS011;42155;53.096;23.226;2022-11-22T08:09:32;37.15;;;14.95;;
56242;SDS011;42155;53.096;23.226;2022-11-22T08:11:32;37.00;;;15.32;;
56242;SDS011;42155;53.096;23.226;2022-11-22T08:13:33;34.75;;;14.65;;
56242;SDS011;42155;53.096;23.226;2022-11-22T08:15:34;35.35;;;15.40;;
56242;SDS011;42155;53.096;23.226;2022-11-22T08:17:34;35.30;;;14.73;;
56242;SDS011;42155;53.096;23.226;2022-11-22T08:19:35;36.50;;;16.50;;
56242;SDS011;42155;53.096;23.226;2022-11-22T08:21:35;35.05;;;15.73;;
56242;SDS011;42155;53.096;23.226;2022-11-22T08:23:36;32.55;;;15.23;;
56242;SDS011;42155;53.096;23.226;2022-11-22T08:25:37;39.33;;;15.10;;
56242;SDS011;42155;53.096;23.226;2022-11-22T08:27:40;36.47;;;15.30;;
56242;SDS011;42155;53.096;23.226;2022-11-22T08:29:42;37.50;;;15.77;;
56242;SDS011;42155;53.096;23.226;2022-11-22T08:31:42;41.80;;;16.38;;
56242;SDS011;42155;53.096;23.226;2022-11-22T08:33:42;41.80;;;16.17;;
56242;SDS011;42155;53.096;23.226;2022-11-22T08:35:43;45.10;;;17.60;;
56242;SDS011;42155;53.096;23.226;2022-11-22T08:37:43;38.72;;;15.88;;
56242;SDS011;42155;53.096;23.226;2022-11-22T08:39:43;38.33;;;16.23;;
56242;SDS011;42155;53.096;23.226;2022-11-22T08:41:44;36.97;;;16.90;;
56242;SDS011;42155;53.096;23.226;2022-11-22T08:43:44;33.08;;;14.77;;
56242;SDS011;42155;53.096;23.226;2022-11-22T08:45:45;33.50;;;14.57;;
56242;SDS011;42155;53.096;23.226;2022-11-22T08:47:47;31.98;;;14.02;;
56242;SDS011;42155;53.096;23.226;2022-11-22T08:49:47;36.22;;;15.95;;
56242;SDS011;42155;53.096;23.226;2022-11-22T08:51:48;39.83;;;15.93;;
56242;SDS011;42155;53.096;23.226;2022-11-22T08:53:48;38.28;;;16.55;;
56242;SDS011;42155;53.096;23.226;2022-11-22T08:55:48;39.92;;;15.73;;
56242;SDS011;42155;53.096;23.226;2022-11-22T08:57:49;30.35;;;13.57;;
56242;SDS011;42155;53.096;23.226;2022-11-22T08:59:49;33.70;;;14.32;;
56242;SDS011;42155;53.096;23.226;2022-11-22T09:01:50;31.52;;;14.27;;
56242;SDS011;42155;53.096;23.226;2022-11-22T09:03:50;32.42;;;13.90;;
56242;SDS011;42155;53.096;23.226;2022-11-22T09:05:50;28.80;;;13.68;;
56242;SDS011;42155;53.096;23.226;2022-11-22T09:07:51;31.38;;;13.52;;
56242;SDS011;42155;53.096;23.226;2022-11-22T09:09:51;28.05;;;12.70;;
56242;SDS011;42155;53.096;23.226;2022-11-22T09:11:51;29.73;;;13.75;;
56242;SDS011;42155;53.096;23.226;2022-11-22T09:13:52;29.77;;;14.38;;
56242;SDS011;42155;53.096;23.226;2022-11-22T09:15:52;32.17;;;14.45;;
56242;SDS011;42155;53.096;23.226;2022-11-22T09:17:58;30.90;;;14.18;;
56242;SDS011;42155;53.096;23.226;2022-11-22T09:19:59;36.45;;;13.73;;
56242;SDS011;42155;53.096;23.226;2022-11-22T09:22:00;31.67;;;13.13;;
56242;SDS011;42155;53.096;23.226;2022-11-22T09:24:00;33.97;;;13.02;;
56242;SDS011;42155;53.096;23.226;2022-11-22T09:26:02;25.20;;;11.43;;
56242;SDS011;42155;53.096;23.226;2022-11-22T09:28:07;27.02;;;12.18;;
56242;SDS011;42155;53.096;23.226;2022-11-22T09:30:07;25.42;;;11.90;;
56242;SDS011;42155;53.096;23.226;2022-11-22T09:32:08;23.50;;;10.52;;
56242;SDS011;42155;53.096;23.226;2022-11-22T09:34:09;23.35;;;10.68;;
56242;SDS011;42155;53.096;23.226;2022-11-22T09:36:10;24.67;;;10.25;;
56242;SDS011;42155;53.096;23.226;2022-11-22T09:38:12;22.10;;;9.73;;
56242;SDS011;42155;53.096;23.226;2022-11-22T09:40:13;23.15;;;10.27;;
56242;SDS011;42155;53.096;23.226;2022-11-22T09:42:39;26.42;;;11.32;;
56242;SDS011;42155;53.096;23.226;2022-11-22T09:52:06;28.05;;;11.20;;
56242;SDS011;42155;53.096;23.226;2022-11-22T09:54:11;28.88;;;11.48;;
56242;SDS011;42155;53.096;23.226;2022-11-22T09:56:18;23.92;;;10.90;;
56242;SDS011;42155;53.096;23.226;2022-11-22T09:58:27;26.02;;;11.52;;
56242;SDS011;42155;53.096;23.226;2022-11-22T10:00:29;29.65;;;11.60;;
56242;SDS011;42155;53.096;23.226;2022-11-22T10:02:32;26.08;;;11.40;;
56242;SDS011;42155;53.096;23.226;2022-11-22T10:04:37;27.77;;;11.95;;
56242;SDS011;42155;53.096;23.226;2022-11-22T10:06:44;29.92;;;12.30;;
56242;SDS011;42155;53.096;23.226;2022-11-22T10:08:51;27.08;;;10.98;;
56242;SDS011;42155;53.096;23.226;2022-11-22T10:10:53;26.95;;;11.57;;
56242;SDS011;42155;53.096;23.226;2022-11-22T10:13:04;29.48;;;12.30;;
56242;SDS011;42155;53.096;23.226;2022-11-22T10:15:18;21.40;;;9.50;;
56242;SDS011;42155;53.096;23.226;2022-11-22T10:19:52;24.90;;;10.95;;
56242;SDS011;42155;53.096;23.226;2022-11-22T10:21:58;29.00;;;11.40;;
56242;SDS011;42155;53.096;23.226;2022-11-22T10:23:59;28.30;;;11.15;;
56242;SDS011;42155;53.096;23.226;2022-11-22T10:26:42;24.65;;;10.88;;
56242;SDS011;42155;53.096;23.226;2022-11-22T10:31:01;32.42;;;13.00;;
56242;SDS011;42155;53.096;23.226;2022-11-22T10:33:17;30.02;;;12.05;;
56242;SDS011;42155;53.096;23.226;2022-11-22T10:49:57;34.35;;;14.20;;
56242;SDS011;42155;53.096;23.226;2022-11-22T10:52:14;37.30;;;13.90;;
56242;SDS011;42155;53.096;23.226;2022-11-22T10:54:20;38.88;;;15.25;;
56242;SDS011;42155;53.096;23.226;2022-11-22T10:56:42;39.53;;;16.50;;
56242;SDS011;42155;53.096;23.226;2022-11-22T10:58:58;37.78;;;15.25;;
56242;SDS011;42155;53.096;23.226;2022-11-22T11:03:39;45.97;;;16.30;;
56242;SDS011;42155;53.096;23.226;2022-11-22T11:07:53;41.85;;;16.33;;
56242;SDS011;42155;53.096;23.226;2022-11-22T11:09:55;40.60;;;16.70;;
56242;SDS011;42155;53.096;23.226;2022-11-22T11:12:01;39.85;;;16.02;;
56242;SDS011;42155;53.096;23.226;2022-11-22T11:14:22;40.72;;;16.83;;
56242;SDS011;42155;53.096;23.226;2022-11-22T11:16:30;39.33;;;17.50;;
56242;SDS011;42155;53.096;23.226;2022-11-22T11:20:40;48.72;;;17.65;;
56242;SDS011;42155;53.096;23.226;2022-11-22T11:22:41;37.25;;;15.55;;
56242;SDS011;42155;53.096;23.226;2022-11-22T11:24:41;41.20;;;16.80;;
56242;SDS011;42155;53.096;23.226;2022-11-22T11:26:42;40.88;;;16.95;;
56242;SDS011;42155;53.096;23.226;2022-11-22T11:28:50;41.58;;;16.80;;
56242;SDS011;42155;53.096;23.226;2022-11-22T11:31:11;42.95;;;17.50;;
56242;SDS011;42155;53.096;23.226;2022-11-22T11:33:16;46.90;;;18.30;;
56242;SDS011;42155;53.096;23.226;2022-11-22T11:35:39;45.30;;;18.00;;
56242;SDS011;42155;53.096;23.226;2022-11-22T11:37:40;44.83;;;17.73;;
56242;SDS011;42155;53.096;23.226;2022-11-22T11:39:40;50.67;;;19.45;;
56242;SDS011;42155;53.096;23.226;2022-11-22T11:41:45;43.50;;;17.30;;
56242;SDS011;42155;53.096;23.226;2022-11-22T11:43:45;43.33;;;17.17;;
56242;SDS011;42155;53.096;23.226;2022-11-22T11:45:46;47.42;;;16.63;;
56242;SDS011;42155;53.096;23.226;2022-11-22T11:47:47;46.92;;;17.33;;
56242;SDS011;42155;53.096;23.226;2022-11-22T11:49:50;51.45;;;17.33;;
56242;SDS011;42155;53.096;23.226;2022-11-22T11:51:54;39.90;;;16.10;;
56242;SDS011;42155;53.096;23.226;2022-11-22T11:54:18;40.20;;;15.90;;
56242;SDS011;42155;53.096;23.226;2022-11-22T11:56:29;43.78;;;17.90;;
56242;SDS011;42155;53.096;23.226;2022-11-22T11:58:32;44.30;;;18.13;;
56242;SDS011;42155;53.096;23.226;2022-11-22T12:00:37;45.17;;;17.83;;
56242;SDS011;42155;53.096;23.226;2022-11-22T12:02:39;53.38;;;19.20;;
56242;SDS011;42155;53.096;23.226;2022-11-22T12:07:17;48.78;;;17.98;;
56242;SDS011;42155;53.096;23.226;2022-11-22T12:09:26;49.13;;;17.92;;
56242;SDS011;42155;53.096;23.226;2022-11-22T12:11:33;49.00;;;17.77;;
56242;SDS011;42155;53.096;23.226;2022-11-22T12:13:47;47.60;;;17.98;;
56242;SDS011;42155;53.096;23.226;2022-11-22T12:17:59;47.40;;;18.83;;
56242;SDS011;42155;53.096;23.226;2022-11-22T12:20:13;51.90;;;18.77;;
56242;SDS011;42155;53.096;23.226;2022-11-22T12:27:16;42.67;;;17.58;;
56242;SDS011;42155;53.096;23.226;2022-11-22T12:29:17;45.33;;;17.45;;
56242;SDS011;42155;53.096;23.226;2022-11-22T12:31:22;41.60;;;16.52;;
56242;SDS011;42155;53.096;23.226;2022-11-22T12:33:41;42.80;;;16.13;;
56242;SDS011;42155;53.096;23.226;2022-11-22T12:35:43;42.03;;;16.58;;
56242;SDS011;42155;53.096;23.226;2022-11-22T12:39:54;49.53;;;17.63;;